createdAt,value
2019-02-23T00:04:28.173Z,103478.50
2019-02-23T00:09:20.063Z,103474.23
2019-02-23T00:14:09.943Z,103468.68
2019-02-23T00:23:13.274Z,103460.91
2019-02-23T00:28:03.220Z,103459.84
2019-02-23T00:32:53.074Z,103452.97
2019-02-23T00:37:43.013Z,103449.02
2019-02-23T00:42:32.873Z,103448.52
2019-02-23T00:47:22.801Z,103450.80
2019-02-23T00:52:12.571Z,103439.75
2019-02-23T00:57:02.433Z,103446.78
2019-02-23T01:01:52.272Z,103447.64
2019-02-23T01:06:42.137Z,103452.05
2019-02-23T01:11:31.988Z,103456.59
2019-02-23T01:16:21.832Z,103451.38
2019-02-23T01:21:11.688Z,103445.20
2019-02-23T01:26:01.544Z,103447.78
2019-02-23T01:30:51.388Z,103459.18
2019-02-23T01:35:41.240Z,103454.76
2019-02-23T01:40:31.206Z,103441.39
2019-02-23T01:45:21.135Z,103449.17
2019-02-23T01:50:11.100Z,103453.66
2019-02-23T01:55:01.017Z,103448.91
2019-02-23T01:59:50.857Z,103453.59
2019-02-23T02:04:40.711Z,103458.86
2019-02-23T02:09:33.940Z,103468.48
2019-02-23T02:14:24.428Z,103461.11
2019-02-23T02:19:14.256Z,103462.67
2019-02-23T02:24:04.148Z,103457.66
2019-02-23T02:28:54.003Z,103459.63
2019-02-23T02:34:13.463Z,103458.56
2019-02-23T02:39:07.124Z,103453.91
2019-02-23T02:43:56.970Z,103450.48
2019-02-23T02:48:46.820Z,103452.78
2019-02-23T02:53:36.672Z,103452.08
2019-02-23T02:58:26.520Z,103454.05
2019-02-23T03:03:16.380Z,103451.02
2019-02-23T03:08:06.238Z,103451.83
2019-02-23T03:12:56.047Z,103446.11
2019-02-23T03:17:46.011Z,103448.74
2019-02-23T03:22:35.860Z,103439.08
2019-02-23T03:27:25.714Z,103439.58
2019-02-23T03:32:15.568Z,103447.48
2019-02-23T03:37:05.404Z,103451.38
2019-02-23T03:41:55.654Z,103442.56
2019-02-23T03:46:45.525Z,103438.62
2019-02-23T03:51:35.354Z,103428.99
2019-02-23T03:56:25.205Z,103436.03
2019-02-23T04:01:15.039Z,103432.03
2019-02-23T04:06:04.903Z,103432.99
2019-02-23T04:10:54.750Z,103441.39
2019-02-23T04:15:44.608Z,103443.67
2019-02-23T04:20:34.424Z,103447.28
2019-02-23T04:25:24.303Z,103459.16
2019-02-23T04:30:14.204Z,103464.47
2019-02-23T04:35:04.120Z,103473.73
2019-02-23T04:39:53.975Z,103484.77
2019-02-23T04:44:43.816Z,103485.25
2019-02-23T04:49:33.677Z,103491.47
2019-02-23T04:54:23.512Z,103495.04
2019-02-23T04:59:13.347Z,103501.13
2019-02-23T05:04:03.188Z,103505.31
2019-02-23T05:08:53.023Z,103510.27
2019-02-23T05:13:42.973Z,103507.28
2019-02-23T05:18:32.810Z,103514.87
2019-02-23T05:23:22.817Z,103506.58
2019-02-23T05:28:12.655Z,103512.49
2019-02-23T05:33:02.521Z,103513.85
2019-02-23T05:37:52.457Z,103505.41
2019-02-23T05:42:42.305Z,103517.97
2019-02-23T05:47:32.123Z,103515.50
2019-02-23T05:52:21.967Z,103523.64
2019-02-23T05:57:11.807Z,103524.49
2019-02-23T06:02:01.664Z,103530.58
2019-02-23T06:06:51.531Z,103531.37
2019-02-23T06:11:41.384Z,103534.12
2019-02-23T06:16:31.234Z,103546.33
2019-02-23T06:21:21.097Z,103536.70
2019-02-23T06:26:10.969Z,103538.23
2019-02-23T06:31:00.818Z,103546.23
2019-02-23T06:35:50.691Z,103556.26
2019-02-23T06:40:40.703Z,103558.78
2019-02-23T06:45:30.642Z,103572.89
2019-02-23T06:50:20.479Z,103575.63
2019-02-23T06:55:10.316Z,103574.80
2019-02-23T07:00:00.141Z,103580.52
2019-02-23T07:04:52.889Z,103574.84
2019-02-23T07:09:42.752Z,103570.89
2019-02-23T07:14:32.605Z,103566.91
2019-02-23T07:19:22.461Z,103562.92
2019-02-23T07:24:12.338Z,103561.57
2019-02-23T07:29:02.180Z,103565.89
2019-02-23T07:33:52.052Z,103561.41
2019-02-23T07:38:41.919Z,103552.23
2019-02-23T07:43:31.764Z,103554.29
2019-02-23T07:48:21.627Z,103558.11
2019-02-23T07:53:11.487Z,103555.80
2019-02-23T07:58:01.358Z,103554.75
2019-02-23T08:02:51.226Z,103549.29
2019-02-23T08:07:41.125Z,103544.01
2019-02-23T08:12:30.968Z,103546.04
2019-02-23T08:17:20.921Z,103545.74
2019-02-23T08:22:10.817Z,103549.59
2019-02-23T08:27:00.735Z,103539.86
2019-02-23T08:31:50.608Z,103535.37
2019-02-23T08:36:40.453Z,103536.31
2019-02-23T08:41:30.302Z,103530.52
2019-02-23T08:46:20.173Z,103529.61
2019-02-23T08:51:10.136Z,103534.94
2019-02-23T08:55:59.969Z,103528.85
2019-02-23T09:00:49.813Z,103533.58
2019-02-23T09:05:40.031Z,103524.26
2019-02-23T09:10:29.990Z,103532.59
2019-02-23T09:15:22.289Z,103526.77
2019-02-23T09:20:12.822Z,103532.53
2019-02-23T09:25:05.224Z,103527.32
2019-02-23T09:29:55.065Z,103522.59
2019-02-23T09:34:45.009Z,103518.75
2019-02-23T09:39:34.862Z,103516.42
2019-02-23T09:44:24.694Z,103511.27
2019-02-23T09:49:14.555Z,103523.40
2019-02-23T09:54:04.529Z,103523.40
2019-02-23T09:58:54.406Z,103530.14
2019-02-23T10:03:44.255Z,103528.45
2019-02-23T10:08:35.438Z,103527.78
2019-02-23T10:13:25.309Z,103514.80
2019-02-23T10:21:39.816Z,103509.41
2019-02-23T10:26:33.731Z,103500.98
2019-02-23T10:31:27.708Z,103496.86
2019-02-23T10:36:22.171Z,103485.77
2019-02-23T10:41:16.141Z,103479.61
2019-02-23T10:46:10.183Z,103476.54
2019-02-23T10:51:04.163Z,103486.38
2019-02-23T10:55:58.039Z,103476.36
2019-02-23T11:00:51.871Z,103467.27
2019-02-23T11:05:45.813Z,103466.72
2019-02-23T11:10:39.795Z,103453.28
2019-02-23T11:15:33.787Z,103449.45
2019-02-23T11:20:28.416Z,103446.06
2019-02-23T11:25:24.248Z,103442.09
2019-02-23T11:30:18.194Z,103423.50
2019-02-23T11:35:16.998Z,103423.50
2019-02-23T11:40:11.241Z,103414.04
2019-02-23T11:45:06.921Z,103398.66
2019-02-23T11:50:00.887Z,103398.50
2019-02-23T11:54:54.741Z,103396.44
2019-02-23T11:59:48.698Z,103376.91
2019-02-23T12:04:42.611Z,103368.22
2019-02-23T12:09:36.470Z,103370.88
2019-02-23T12:14:30.341Z,103363.25
2019-02-23T12:19:24.473Z,103355.77
2019-02-23T12:24:18.510Z,103342.75
2019-02-23T12:29:12.369Z,103336.08
2019-02-23T12:34:06.339Z,103330.86
2019-02-23T12:39:00.183Z,103338.25
2019-02-23T12:43:54.064Z,103332.30
2019-02-23T12:48:47.934Z,103334.98
2019-02-23T12:53:41.785Z,103328.02
2019-02-23T12:58:35.662Z,103326.48
2019-02-23T13:03:29.550Z,103305.47
2019-02-23T13:08:27.210Z,103310.19
2019-02-23T13:13:34.038Z,103301.37
2019-02-23T13:18:34.798Z,103295.97
2019-02-23T13:23:35.271Z,103289.92
2019-02-23T13:28:41.635Z,103293.91
2019-02-23T13:34:12.884Z,103288.77
2019-02-23T13:39:16.789Z,103290.86
2019-02-23T13:44:30.799Z,103294.13
2019-02-23T13:49:49.246Z,103276.22
2019-02-23T13:55:17.815Z,103285.30
2019-02-23T14:00:47.556Z,103291.27
2019-02-23T14:05:45.248Z,103287.34
2019-02-23T14:10:42.906Z,103278.17
2019-02-23T14:15:46.782Z,103282.08
2019-02-23T14:20:58.991Z,103282.03
2019-02-23T14:26:08.863Z,103283.19
2019-02-23T14:31:06.522Z,103269.30
2019-02-23T14:36:09.826Z,103261.08
2019-02-23T14:41:13.550Z,103258.17
2019-02-23T14:46:27.856Z,103253.22
2019-02-23T14:51:40.659Z,103254.56
2019-02-23T14:56:57.604Z,103249.64
2019-02-23T15:02:10.551Z,103267.86
2019-02-23T15:07:17.266Z,103262.81
2019-02-23T15:12:20.929Z,103266.41
2019-02-23T15:17:24.415Z,103263.05
2019-02-23T15:22:48.698Z,103261.03
2019-02-23T15:27:49.175Z,103246.66
2019-02-23T15:33:12.989Z,103239.48
2019-02-23T15:38:19.890Z,103246.41
2019-02-23T15:43:23.603Z,103251.62
2019-02-23T15:48:30.445Z,103243.54
2019-02-23T15:53:24.275Z,103251.88
2019-02-23T15:58:18.534Z,103263.41
2019-02-23T16:03:12.390Z,103266.13
2019-02-23T16:08:06.250Z,103272.66
2019-02-23T16:13:00.141Z,103276.45
2019-02-23T16:17:54.070Z,103276.27
2019-02-23T16:22:48.086Z,103288.17
2019-02-23T16:27:41.970Z,103296.02
2019-02-23T16:32:35.859Z,103302.77
2019-02-23T16:37:29.717Z,103304.25
2019-02-23T16:42:23.606Z,103310.97
2019-02-23T16:47:17.566Z,103317.48
2019-02-23T16:52:11.408Z,103313.38
2019-02-23T16:57:05.268Z,103298.84
2019-02-23T17:01:59.155Z,103311.66
2019-02-23T17:06:53.009Z,103318.20
2019-02-23T17:11:46.836Z,103330.41
2019-02-23T17:16:40.688Z,103331.13
2019-02-23T17:21:34.574Z,103326.47
2019-02-23T17:26:28.508Z,103315.44
2019-02-23T17:31:22.400Z,103327.97
2019-02-23T17:36:16.660Z,103331.56
2019-02-23T17:42:53.475Z,103339.72
2019-02-23T17:46:07.336Z,103331.89
2019-02-23T17:49:21.179Z,103336.27
2019-02-23T17:52:35.041Z,103336.89
2019-02-23T17:55:49.148Z,103337.22
2019-02-23T17:59:03.133Z,103338.82
2019-02-23T18:02:16.966Z,103336.75
2019-02-23T18:05:30.936Z,103332.02
2019-02-23T18:08:44.788Z,103325.34
2019-02-23T18:11:58.674Z,103317.92
2019-02-23T18:15:12.643Z,103323.72
2019-02-23T18:18:26.530Z,103325.89
2019-02-23T18:21:40.425Z,103317.16
2019-02-23T18:24:54.561Z,103317.94
2019-02-23T18:28:08.459Z,103321.76
2019-02-23T18:31:22.369Z,103322.10
2019-02-23T18:34:36.210Z,103324.23
2019-02-23T18:37:50.181Z,103326.66
2019-02-23T18:41:04.038Z,103329.56
2019-02-23T18:44:21.183Z,103333.31
2019-02-23T18:47:35.061Z,103334.44
2019-02-23T18:50:54.034Z,103334.44
2019-02-23T18:54:10.480Z,103337.17
2019-02-23T18:57:24.327Z,103340.50
2019-02-23T19:00:38.184Z,103350.38
2019-02-23T19:03:52.066Z,103354.16
2019-02-23T19:07:06.012Z,103358.72
2019-02-23T19:10:19.852Z,103359.28
2019-02-23T19:13:33.723Z,103361.63
2019-02-23T19:16:47.621Z,103353.78
2019-02-23T19:20:02.850Z,103360.59
2019-02-23T19:23:16.698Z,103361.51
2019-02-23T19:26:38.072Z,103366.81
2019-02-23T19:29:46.594Z,103363.47
2019-02-23T19:33:00.561Z,103356.94
2019-02-23T19:36:14.495Z,103354.33
2019-02-23T19:39:28.349Z,103361.94
2019-02-23T19:42:42.214Z,103360.31
2019-02-23T19:45:56.177Z,103357.67
2019-02-23T19:49:10.057Z,103362.59
2019-02-23T19:52:24.134Z,103364.56
2019-02-23T19:55:37.999Z,103362.91
2019-02-23T19:58:51.858Z,103369.44
2019-02-23T20:02:05.704Z,103365.11
2019-02-23T20:05:19.554Z,103368.20
2019-02-23T20:08:33.428Z,103360.93
2019-02-23T20:11:47.381Z,103363.56
2019-02-23T20:15:01.500Z,103382.34
2019-02-23T20:18:15.348Z,103379.41
2019-02-23T20:21:29.440Z,103386.35
2019-02-23T20:24:43.377Z,103376.77
2019-02-23T20:27:57.218Z,103374.49
2019-02-23T20:31:11.448Z,103378.25
2019-02-23T20:34:25.368Z,103378.37
2019-02-23T20:37:39.215Z,103375.73
2019-02-23T20:40:53.238Z,103377.54
2019-02-23T20:44:07.087Z,103377.20
2019-02-23T20:47:21.049Z,103381.36
2019-02-23T20:50:34.905Z,103380.06
2019-02-23T20:53:48.754Z,103377.55
2019-02-23T20:57:05.250Z,103383.67
2019-02-23T21:00:19.128Z,103383.67
2019-02-23T21:03:32.968Z,103379.00
2019-02-23T21:06:48.883Z,103379.54
2019-02-23T21:10:08.371Z,103382.81
2019-02-23T21:13:22.223Z,103379.55
2019-02-23T21:16:36.095Z,103379.81
2019-02-23T21:19:50.028Z,103372.45
2019-02-23T21:23:04.031Z,103376.14
2019-02-23T21:26:18.040Z,103375.28
2019-02-23T21:29:31.890Z,103384.97
2019-02-23T21:32:45.776Z,103376.79
2019-02-23T21:35:59.656Z,103382.47
2019-02-23T21:39:13.499Z,103381.16
2019-02-23T21:42:27.354Z,103376.01
2019-02-23T21:45:41.221Z,103376.08
2019-02-23T21:48:55.403Z,103373.55
2019-02-23T21:52:09.282Z,103375.78
2019-02-23T21:55:23.105Z,103382.39
2019-02-23T21:58:36.985Z,103376.20
2019-02-23T22:01:50.973Z,103374.02
2019-02-23T22:05:11.922Z,103370.53
2019-02-23T22:08:21.311Z,103368.41
2019-02-23T22:11:35.128Z,103369.78
2019-02-23T22:14:48.995Z,103375.07
2019-02-23T22:18:02.980Z,103379.12
2019-02-23T22:21:16.795Z,103375.19
2019-02-23T22:24:30.685Z,103378.38
2019-02-23T22:27:44.734Z,103375.86
2019-02-23T22:30:58.575Z,103385.53
2019-02-23T22:34:12.419Z,103387.72
2019-02-23T22:37:26.253Z,103391.27
2019-02-23T22:40:40.216Z,103387.42
2019-02-23T22:43:54.115Z,103385.14
2019-02-23T22:47:07.967Z,103386.41
2019-02-23T22:50:21.947Z,103384.33
2019-02-23T22:53:35.793Z,103384.48
2019-02-23T22:56:49.619Z,103384.14
2019-02-23T23:00:07.722Z,103371.44
2019-02-23T23:03:22.182Z,103379.80
2019-02-23T23:06:36.081Z,103379.94
2019-02-23T23:09:50.067Z,103380.30
2019-02-23T23:13:04.015Z,103376.81
2019-02-23T23:16:17.871Z,103381.72
2019-02-23T23:19:31.752Z,103378.27
2019-02-23T23:22:45.690Z,103373.88
2019-02-23T23:25:59.564Z,103369.56
2019-02-23T23:29:13.537Z,103363.50
2019-02-23T23:32:27.401Z,103358.33
2019-02-23T23:35:41.263Z,103356.97
2019-02-23T23:38:55.182Z,103358.28
2019-02-23T23:42:09.128Z,103352.52
2019-02-23T23:45:23.144Z,103349.44
2019-02-23T23:48:37.085Z,103355.56
2019-02-23T23:51:51.010Z,103352.47
2019-02-23T23:55:05.176Z,103354.09
2019-02-23T23:58:19.012Z,103345.73
